Time;durP1;ratioP1;P1;durP2;ratioP2;P2;SDS_P1;SDS_P2;PMS_P1;PMS_P2;Temp;Humidity;BMP_temperature;BMP_pressure;BME280_temperature;BME280_humidity;BME280_pressure;Samples;Min_cycle;Max_cycle;Signal;HPM_P1;HPM_P2
2021/03/24 00:01:17;;;;;;;5.03;0.40;;;;;;;-1.22;61.38;99457.34;1754337;81;21536;-56
2021/03/24 00:03:44;;;;;;;1.90;0.40;;;;;;;-1.24;61.33;99461.31;1765505;80;21558;-55
2021/03/24 00:06:13;;;;;;;0.90;0.30;;;;;;;-1.25;61.36;99453.39;1759388;79;21453;-55
2021/03/24 00:08:40;;;;;;;0.97;0.30;;;;;;;-1.25;61.33;99464.83;1761266;79;21498;-55
2021/03/24 00:11:07;;;;;;;2.33;0.30;;;;;;;-1.24;61.24;99463.07;1753505;81;21099;-54
2021/03/24 00:13:35;;;;;;;0.83;0.33;;;;;;;-1.24;61.23;99467.03;1763016;80;21173;-56
2021/03/24 00:16:03;;;;;;;0.53;0.20;;;;;;;-1.27;61.22;99465.72;1763317;80;21185;-57
2021/03/24 00:18:32;;;;;;;1.33;0.40;;;;;;;-1.28;61.25;99468.83;1760142;80;21093;-56
2021/03/24 00:20:59;;;;;;;0.80;0.30;;;;;;;-1.27;61.27;99472.32;1762254;79;22157;-55
2021/03/24 00:23:27;;;;;;;1.30;0.33;;;;;;;-1.26;61.19;99475.39;1789299;78;21393;-57
2021/03/24 00:25:54;;;;;;;1.37;0.30;;;;;;;-1.25;61.32;99485.95;1789463;78;21123;-55
2021/03/24 00:28:22;;;;;;;0.80;0.20;;;;;;;-1.27;61.36;99478.48;1762383;80;21960;-56
2021/03/24 00:30:49;;;;;;;0.53;0.30;;;;;;;-1.27;61.37;99485.08;1763305;80;21127;-57
2021/03/24 00:33:19;;;;;;;0.70;0.30;;;;;;;-1.26;61.33;99490.80;1788784;79;22502;-55
2021/03/24 00:35:48;;;;;;;1.63;0.30;;;;;;;-1.27;61.36;99477.60;1757409;80;21196;-54
2021/03/24 00:38:16;;;;;;;1.13;0.30;;;;;;;-1.28;61.45;99483.80;1788395;78;21119;-57
2021/03/24 00:40:51;;;;;;;0.80;0.27;;;;;;;-1.28;61.41;99491.28;1752969;80;21182;-58
2021/03/24 00:43:19;;;;;;;0.93;0.30;;;;;;;-1.27;61.43;99484.20;1753910;80;21197;-54
2021/03/24 00:45:47;;;;;;;1.57;0.60;;;;;;;-1.27;61.54;99485.52;1753647;80;21400;-56
2021/03/24 00:48:21;;;;;;;0.60;0.30;;;;;;;-1.29;61.63;99488.64;1749845;80;21669;-57
2021/03/24 00:50:49;;;;;;;;;;;;;;;-1.31;61.66;99493.92;1782725;80;21178;-56
2021/03/24 00:53:16;;;;;;;0.57;0.20;;;;;;;-1.30;61.63;99493.48;1779976;80;20597;-56
2021/03/24 00:55:45;;;;;;;0.73;0.30;;;;;;;-1.32;61.68;99493.48;1753381;80;21182;-56
2021/03/24 00:58:12;;;;;;;2.00;0.40;;;;;;;-1.30;61.56;99488.20;1748832;80;21645;-59
2021/03/24 01:00:40;;;;;;;1.10;0.30;;;;;;;-1.31;61.50;99486.44;1779328;79;21229;-59
2021/03/24 01:03:08;;;;;;;1.60;0.30;;;;;;;-1.31;61.48;99495.69;1764358;79;21150;-59
2021/03/24 01:05:37;;;;;;;1.63;0.47;;;;;;;-1.32;61.57;99500.52;1783771;79;21441;-59
2021/03/24 01:08:11;;;;;;;0.50;0.30;;;;;;;-1.32;61.50;99507.13;1767406;79;21504;-59
2021/03/24 01:10:39;;;;;;;1.40;0.53;;;;;;;-1.31;61.53;99515.48;1754074;80;21207;-56
2021/03/24 01:13:09;;;;;;;2.23;0.23;;;;;;;-1.30;61.45;99515.48;1755725;80;21115;-55
2021/03/24 01:15:39;;;;;;;0.60;0.20;;;;;;;-1.29;61.41;99510.64;1750469;80;21135;-57
2021/03/24 01:18:08;;;;;;;0.70;0.30;;;;;;;-1.29;61.43;99515.05;1756810;80;21531;-56
2021/03/24 01:20:39;;;;;;;0.93;0.20;;;;;;;-1.29;61.25;99519.00;1752580;80;21127;-58
2021/03/24 01:23:06;;;;;;;0.50;0.30;;;;;;;-1.31;61.37;99519.45;1753543;80;21645;-59
2021/03/24 01:25:36;;;;;;;0.50;0.30;;;;;;;-1.32;61.24;99517.69;1755679;80;21133;-57
2021/03/24 01:28:07;;;;;;;2.93;0.40;;;;;;;-1.34;61.21;99531.33;1755908;80;21101;-55
2021/03/24 01:30:34;;;;;;;0.30;0.20;;;;;;;-1.36;61.24;99520.77;1755281;80;21581;-55
2021/03/24 01:33:01;;;;;;;1.23;0.30;;;;;;;-1.35;61.30;99519.01;1754875;80;21119;-58
2021/03/24 01:35:29;;;;;;;0.90;0.30;;;;;;;-1.35;61.40;99526.93;1754309;80;21383;-57
2021/03/24 01:37:56;;;;;;;1.10;0.30;;;;;;;-1.34;61.35;99526.05;1752413;80;21183;-59
2021/03/24 01:40:34;;;;;;;0.33;0.27;;;;;;;-1.37;61.20;99523.45;1754538;80;21378;-59
2021/03/24 01:43:06;;;;;;;2.27;0.30;;;;;;;-1.36;61.18;99537.08;1753847;80;21537;-55
2021/03/24 01:45:57;;;;;;;2.50;0.30;;;;;;;-1.38;61.33;99533.12;1754560;80;21138;-55
2021/03/24 01:48:26;;;;;;;0.77;0.40;;;;;;;-1.41;61.27;99528.28;1756475;80;22240;-56
2021/03/24 01:50:53;;;;;;;1.07;0.27;;;;;;;-1.42;61.39;99528.72;1753001;80;21139;-56
2021/03/24 01:53:20;;;;;;;0.87;0.40;;;;;;;-1.43;61.40;99535.33;1755721;80;21724;-58
2021/03/24 01:55:48;;;;;;;2.57;0.50;;;;;;;-1.44;61.52;99539.72;1755773;80;21554;-58
2021/03/24 01:58:15;;;;;;;3.57;0.37;;;;;;;-1.45;61.57;99542.40;1759278;80;21169;-57
2021/03/24 02:00:45;;;;;;;0.53;0.23;;;;;;;-1.46;61.66;99538.00;1757428;80;21215;-56
2021/03/24 02:03:13;;;;;;;1.23;0.40;;;;;;;-1.47;61.64;99549.44;1756472;80;21228;-55
2021/03/24 02:05:44;;;;;;;4.10;0.40;;;;;;;-1.49;61.71;99547.23;1757522;80;21540;-55
2021/03/24 02:08:22;;;;;;;0.87;0.27;;;;;;;-1.52;61.77;99543.71;1755143;80;21123;-56
2021/03/24 02:11:05;;;;;;;1.23;0.30;;;;;;;-1.53;61.78;99552.52;1753167;80;21207;-55
2021/03/24 02:13:48;;;;;;;2.23;0.30;;;;;;;-1.54;61.84;99556.06;1757850;80;21431;-58
2021/03/24 02:16:35;;;;;;;1.37;0.40;;;;;;;-1.57;61.94;99563.98;1753502;80;21140;-58
2021/03/24 02:19:18;;;;;;;0.70;0.30;;;;;;;-1.58;61.97;99561.34;1759275;80;21643;-58
2021/03/24 02:21:46;;;;;;;0.40;0.30;;;;;;;-1.59;62.11;99559.58;1735413;80;21580;-59
2021/03/24 02:24:32;;;;;;;1.77;0.30;;;;;;;-1.60;62.10;99562.66;1757149;80;21168;-58
2021/03/24 02:27:12;;;;;;;1.87;0.30;;;;;;;-1.61;62.15;99555.62;1755594;80;22106;-56
2021/03/24 02:29:44;;;;;;;1.27;0.60;;;;;;;-1.61;62.23;99556.94;1756870;80;21663;-57
2021/03/24 02:32:14;;;;;;;1.00;0.50;;;;;;;-1.60;62.27;99566.61;1755791;80;21199;-57
2021/03/24 02:34:42;;;;;;;0.87;0.30;;;;;;;-1.60;62.29;99567.94;1756984;80;21161;-59
2021/03/24 02:37:10;;;;;;;0.70;0.30;;;;;;;-1.61;62.29;99565.30;1731641;80;21187;-59
2021/03/24 02:39:38;;;;;;;0.77;0.30;;;;;;;-1.66;62.34;99570.59;1755424;80;22116;-57
2021/03/24 02:42:07;;;;;;;2.17;0.40;;;;;;;-1.68;62.49;99572.79;1707574;80;21483;-59
2021/03/24 02:44:34;;;;;;;2.00;0.50;;;;;;;-1.72;62.61;99574.58;1755296;80;21179;-59
2021/03/24 02:47:03;;;;;;;1.60;0.33;;;;;;;-1.71;62.61;99574.14;1757485;80;21111;-58
2021/03/24 02:49:32;;;;;;;0.60;0.50;;;;;;;-1.71;62.65;99572.38;1759144;80;21198;-58
2021/03/24 02:51:59;;;;;;;1.43;0.97;;;;;;;-1.71;62.73;99566.22;1756005;80;21874;-58
2021/03/24 02:54:28;;;;;;;2.73;0.40;;;;;;;-1.72;62.76;99568.42;1685741;80;21210;-57
2021/03/24 02:56:55;;;;;;;0.50;0.30;;;;;;;-1.72;62.78;99569.30;1701804;80;21712;-58
2021/03/24 02:59:23;;;;;;;2.40;0.40;;;;;;;-1.73;62.76;99572.81;1725748;80;21214;-58
2021/03/24 03:02:14;;;;;;;1.00;0.47;;;;;;;-1.74;62.79;99572.38;1752975;80;21181;-58
2021/03/24 03:05:02;;;;;;;0.70;0.40;;;;;;;-1.75;62.83;99581.17;1753423;80;21442;-57
2021/03/24 03:07:38;;;;;;;1.23;0.43;;;;;;;-1.76;62.93;99582.05;1752328;80;21200;-57
2021/03/24 03:10:14;;;;;;;0.80;0.60;;;;;;;-1.76;62.97;99585.12;1754008;80;21179;-57
2021/03/24 03:13:19;;;;;;;2.03;1.00;;;;;;;-1.77;63.04;99584.24;1753642;80;21735;-57
2021/03/24 03:16:01;;;;;;;1.27;0.60;;;;;;;-1.77;63.02;99583.36;1747544;81;21162;-56
2021/03/24 03:18:36;;;;;;;0.80;0.50;;;;;;;-1.79;63.03;99583.39;1735773;82;21703;-57
2021/03/24 03:21:11;;;;;;;0.83;0.40;;;;;;;-1.79;63.07;99583.39;1719438;82;21205;-56
2021/03/24 03:23:38;;;;;;;4.33;0.50;;;;;;;-1.79;63.06;99586.47;1741328;81;21471;-58
2021/03/24 03:26:15;;;;;;;1.20;0.40;;;;;;;-1.80;63.17;99588.23;1742994;81;21193;-58
2021/03/24 03:28:44;;;;;;;1.03;0.40;;;;;;;-1.81;63.15;99593.06;1741617;81;21174;-59
2021/03/24 03:31:16;;;;;;;1.53;0.50;;;;;;;-1.81;63.24;99590.86;1743313;81;22193;-58
2021/03/24 03:33:45;;;;;;;2.47;0.50;;;;;;;-1.81;63.35;99594.38;1741755;81;21255;-59
2021/03/24 03:36:13;;;;;;;1.10;0.50;;;;;;;-1.78;63.31;99600.95;1718992;81;21197;-59
2021/03/24 03:38:40;;;;;;;2.07;0.57;;;;;;;-1.77;63.30;99593.48;1744133;81;21173;-58
2021/03/24 03:41:09;;;;;;;2.83;0.90;;;;;;;-1.77;63.34;99601.39;1736678;81;21174;-59
2021/03/24 03:43:41;;;;;;;3.60;1.30;;;;;;;-1.78;63.38;99600.95;1696424;81;21507;-59
2021/03/24 03:46:10;;;;;;;5.30;1.20;;;;;;;-1.78;63.32;99600.07;1688787;81;21114;-59
2021/03/24 03:48:38;;;;;;;8.60;2.43;;;;;;;-1.78;63.33;99602.71;1718720;81;21110;-59
2021/03/24 03:51:10;;;;;;;11.70;3.00;;;;;;;-1.77;63.35;99604.47;1716418;81;21221;-58
2021/03/24 03:53:58;;;;;;;6.33;1.60;;;;;;;-1.74;63.37;99609.31;1718120;81;21425;-58
2021/03/24 03:56:42;;;;;;;1.50;0.67;;;;;;;-1.74;63.37;99614.59;1715790;81;21559;-58
2021/03/24 03:59:25;;;;;;;0.83;0.50;;;;;;;-1.73;63.32;99600.97;1717222;81;21201;-58
2021/03/24 04:01:55;;;;;;;1.37;0.53;;;;;;;-1.73;63.31;99606.24;1717577;81;21602;-58
2021/03/24 04:04:27;;;;;;;4.97;0.50;;;;;;;-1.73;63.35;99606.24;1716604;81;21746;-59
2021/03/24 04:07:11;;;;;;;3.30;0.50;;;;;;;-1.71;63.27;99605.80;1716788;81;21575;-58
2021/03/24 04:09:38;;;;;;;0.80;0.50;;;;;;;-1.73;63.23;99611.52;1720032;81;21567;-59
2021/03/24 04:12:10;;;;;;;1.17;0.50;;;;;;;-1.73;63.30;99615.04;1717364;81;21114;-58
2021/03/24 04:14:38;;;;;;;0.97;0.60;;;;;;;-1.75;63.26;99620.75;1720408;81;21125;-58
2021/03/24 04:17:07;;;;;;;1.17;0.60;;;;;;;-1.72;63.32;99616.80;1718309;81;21118;-58
2021/03/24 04:19:38;;;;;;;4.03;1.00;;;;;;;-1.73;63.32;99621.63;1721499;81;21126;-59
2021/03/24 04:22:08;;;;;;;1.63;0.50;;;;;;;-1.72;63.18;99623.84;1668075;83;21657;-59
2021/03/24 04:24:38;;;;;;;1.30;0.50;;;;;;;-1.70;63.23;99624.25;1711463;82;21698;-59
2021/03/24 04:27:06;;;;;;;2.20;0.53;;;;;;;-1.69;63.22;99624.69;1702229;82;21497;-57
2021/03/24 04:29:38;;;;;;;1.47;0.60;;;;;;;-1.69;63.28;99627.33;1694116;81;21130;-58
2021/03/24 04:32:07;;;;;;;2.03;0.50;;;;;;;-1.66;63.24;99635.70;1718833;81;21475;-57
2021/03/24 04:34:34;;;;;;;5.17;0.50;;;;;;;-1.66;63.31;99629.09;1671708;81;21394;-58
2021/03/24 04:37:12;;;;;;;2.93;0.60;;;;;;;-1.67;63.19;99641.84;1717689;81;21170;-58
2021/03/24 04:39:44;;;;;;;1.30;0.50;;;;;;;-1.66;63.17;99635.26;1719415;81;21185;-58
2021/03/24 04:42:16;;;;;;;4.67;0.77;;;;;;;-1.63;63.24;99643.19;1691757;81;21599;-59
2021/03/24 04:44:45;;;;;;;3.93;0.70;;;;;;;-1.58;63.20;99644.04;1719099;81;21113;-58
2021/03/24 04:47:21;;;;;;;4.77;0.70;;;;;;;-1.56;62.99;99645.36;1718544;81;21886;-58
2021/03/24 04:50:02;;;;;;;1.43;0.50;;;;;;;-1.57;62.83;99648.44;1717718;81;22710;-58
2021/03/24 04:52:33;;;;;;;1.70;0.60;;;;;;;-1.57;62.93;99652.41;1719343;81;21561;-57
2021/03/24 04:55:08;;;;;;;3.37;0.50;;;;;;;-1.55;62.83;99657.69;1716880;81;21564;-57
2021/03/24 04:57:35;;;;;;;4.20;0.80;;;;;;;-1.53;63.01;99658.09;1722532;81;21147;-57
2021/03/24 05:00:11;;;;;;;8.87;1.00;;;;;;;-1.50;62.68;99655.91;1719376;81;21201;-57
2021/03/24 05:02:39;;;;;;;15.70;2.57;;;;;;;-1.49;62.67;99664.70;1693497;81;21218;-57
2021/03/24 05:05:20;;;;;;;6.93;1.63;;;;;;;-1.47;62.69;99667.79;1720630;81;21144;-58
2021/03/24 05:07:51;;;;;;;12.43;2.97;;;;;;;-1.45;62.47;99662.08;1718427;81;21202;-57
2021/03/24 05:10:23;;;;;;;6.13;1.30;;;;;;;-1.42;62.39;99661.17;1717080;81;21233;-58
2021/03/24 05:13:02;;;;;;;4.60;0.80;;;;;;;-1.40;62.26;99666.89;1720315;81;21766;-58
2021/03/24 05:15:42;;;;;;;5.07;1.10;;;;;;;-1.36;62.31;99665.14;1720944;81;21161;-58
2021/03/24 05:18:14;;;;;;;2.83;0.80;;;;;;;-1.34;62.06;99661.59;1697177;81;21233;-58
2021/03/24 05:20:48;;;;;;;4.43;0.90;;;;;;;-1.32;62.06;99667.76;1721804;81;21185;-57
2021/03/24 05:23:18;;;;;;;5.17;0.80;;;;;;;-1.28;61.92;99665.56;1692270;83;21162;-58
2021/03/24 05:25:56;;;;;;;4.03;1.03;;;;;;;-1.25;61.57;99664.22;1717783;81;21188;-59
2021/03/24 05:28:31;;;;;;;5.33;0.80;;;;;;;-1.20;61.55;99670.39;1717932;81;21169;-59
2021/03/24 05:31:03;;;;;;;1.97;1.03;;;;;;;-1.19;61.21;99660.67;1701665;82;21158;-58
2021/03/24 05:33:35;;;;;;;4.33;0.83;;;;;;;-1.15;61.09;99658.47;1700124;82;21154;-59
2021/03/24 05:36:22;;;;;;;8.00;0.80;;;;;;;-1.09;61.21;99665.05;1700584;82;21138;-60
2021/03/24 05:38:51;;;;;;;3.57;0.90;;;;;;;-1.06;60.97;99663.73;1717389;81;21528;-59
2021/03/24 05:41:46;;;;;;;2.93;0.87;;;;;;;-0.98;60.55;99674.27;1700896;82;21245;-59
2021/03/24 05:44:37;;;;;;;6.33;1.33;;;;;;;-0.93;60.51;99690.98;1716957;81;21154;-59
2021/03/24 05:47:21;;;;;;;6.93;0.90;;;;;;;-0.90;60.47;99684.38;1699066;82;21645;-59
2021/03/24 05:50:26;;;;;;;8.83;1.20;;;;;;;-0.86;60.33;99688.34;1717750;81;21161;-59
2021/03/24 05:53:39;;;;;;;11.03;2.27;;;;;;;-0.81;60.11;99686.55;1704293;82;22021;-59
2021/03/24 05:56:45;;;;;;;17.77;3.70;;;;;;;-0.77;59.70;99680.81;1717094;81;21232;-59
2021/03/24 05:59:29;;;;;;;8.97;2.17;;;;;;;-0.75;59.72;99694.88;1687045;83;21216;-61
2021/03/24 06:02:03;;;;;;;6.73;1.20;;;;;;;-0.70;59.56;99701.49;1718213;81;22076;-58
2021/03/24 06:04:52;;;;;;;12.73;2.63;;;;;;;-0.70;59.50;99698.84;1702845;82;21147;-60
2021/03/24 06:08:00;;;;;;;16.27;1.93;;;;;;;-0.69;59.51;99703.25;1698765;81;21381;-58
2021/03/24 06:10:47;;;;;;;29.87;5.73;;;;;;;-0.65;59.52;99704.54;1715094;82;21152;-57
2021/03/24 06:13:57;;;;;;;46.27;8.73;;;;;;;-0.56;59.50;99713.75;1682446;82;21174;-57
2021/03/24 06:16:52;;;;;;;52.17;12.97;;;;;;;-0.50;59.25;99716.36;1719498;81;21201;-58
2021/03/24 06:19:52;;;;;;;44.43;13.00;;;;;;;-0.45;59.12;99725.62;1718971;81;21583;-57
2021/03/24 06:23:11;;;;;;;56.33;14.50;;;;;;;-0.45;58.97;99719.89;1720170;81;21201;-60
2021/03/24 06:25:47;;;;;;;17.37;2.63;;;;;;;-0.46;58.80;99715.92;1721050;81;21113;-58
2021/03/24 06:28:54;;;;;;;6.17;1.00;;;;;;;-0.48;58.33;99721.21;1695776;83;21141;-58
2021/03/24 06:31:32;;;;;;;6.37;1.00;;;;;;;-0.50;58.48;99727.38;1723474;81;21189;-59
2021/03/24 06:34:34;;;;;;;1.60;0.80;;;;;;;-0.49;58.60;99729.14;1696228;83;21219;-59
2021/03/24 06:37:47;;;;;;;1.53;0.70;;;;;;;-0.46;58.61;99731.79;1670764;83;21428;-58
2021/03/24 06:40:35;;;;;;;7.83;1.17;;;;;;;-0.43;58.60;99737.95;1720782;81;21170;-58
2021/03/24 06:43:17;;;;;;;6.03;0.90;;;;;;;-0.41;58.30;99729.98;1693916;83;21248;-61
2021/03/24 06:46:28;;;;;;;12.13;1.57;;;;;;;-0.37;58.63;99729.55;1688131;81;21225;-59
2021/03/24 06:49:25;;;;;;;27.20;5.23;;;;;;;-0.29;58.34;99731.27;1693628;83;21241;-58
2021/03/24 06:52:42;;;;;;;13.70;2.37;;;;;;;-0.25;58.26;99729.47;1717141;81;22907;-59
2021/03/24 06:55:53;;;;;;;15.00;3.10;;;;;;;-0.22;58.24;99722.84;1639573;82;21162;-57
2021/03/24 06:58:58;;;;;;;5.20;1.17;;;;;;;-0.18;57.98;99727.25;1723017;81;21142;-59
2021/03/24 07:02:15;;;;;;;3.23;0.80;;;;;;;-0.21;57.78;99732.55;1695912;83;21141;-59
2021/03/24 07:04:57;;;;;;;8.90;1.50;;;;;;;-0.23;57.78;99732.55;1722837;81;21121;-59
2021/03/24 07:07:51;;;;;;;3.80;1.10;;;;;;;-0.21;57.93;99735.19;1697615;83;22020;-59
2021/03/24 07:10:32;;;;;;;;;;;;;;;-0.19;57.90;99732.98;1719694;81;21689;-59
2021/03/24 07:13:55;;;;;;;1.67;0.80;;;;;;;-0.16;58.01;99734.27;1686689;84;20521;-59
2021/03/24 07:16:28;;;;;;;1.93;0.70;;;;;;;-0.14;57.77;99743.52;1699011;82;21214;-61
2021/03/24 07:19:33;;;;;;;3.40;0.87;;;;;;;-0.12;57.99;99737.79;1700404;82;21094;-59
2021/03/24 07:22:26;;;;;;;4.37;1.13;;;;;;;-0.10;57.50;99735.58;1700626;82;22669;-59
2021/03/24 07:25:37;;;;;;;4.30;1.00;;;;;;;-0.07;57.87;99746.56;1717764;81;21227;-58
2021/03/24 07:28:40;;;;;;;6.33;1.40;;;;;;;0.03;58.13;99757.54;1715986;81;21222;-60
2021/03/24 07:31:41;;;;;;;6.47;1.50;;;;;;;0.16;57.83;99750.42;1718970;81;21110;-60
2021/03/24 07:34:35;;;;;;;8.40;1.70;;;;;;;0.28;57.99;99741.93;1723613;81;21775;-60
2021/03/24 07:37:20;;;;;;;3.87;1.10;;;;;;;0.43;57.67;99750.20;1718103;81;21668;-62
2021/03/24 07:40:17;;;;;;;;;;;;;;;0.55;57.32;99756.73;1720963;81;21146;-58
2021/03/24 07:43:15;;;;;;;5.50;1.40;;;;;;;0.60;57.29;99756.24;1719645;80;20256;-62
2021/03/24 07:46:29;;;;;;;3.93;1.23;;;;;;;0.68;56.83;99758.38;1715976;81;21121;-59
2021/03/24 07:49:39;;;;;;;3.53;1.00;;;;;;;0.81;56.84;99760.94;1718680;81;21167;-62
2021/03/24 07:52:35;;;;;;;3.47;1.20;;;;;;;0.91;56.41;99754.23;1709269;81;21569;-59
2021/03/24 07:55:30;;;;;;;5.70;1.00;;;;;;;0.96;56.32;99756.38;1719855;81;21157;-60
2021/03/24 07:58:29;;;;;;;2.57;1.10;;;;;;;1.03;56.42;99750.11;1692530;83;21203;-60
2021/03/24 08:01:37;;;;;;;3.50;1.07;;;;;;;1.17;56.46;99753.09;1719109;81;21149;-60
2021/03/24 08:04:39;;;;;;;5.73;1.80;;;;;;;1.32;56.28;99754.24;1716542;81;21220;-59
2021/03/24 08:07:27;;;;;;;8.73;2.97;;;;;;;1.43;55.75;99757.66;1714818;81;21782;-61
2021/03/24 08:12:10;;;;;;;4.10;2.03;;;;;;;1.59;55.14;99755.70;1871449;75;27170;-61
2021/03/24 08:15:12;;;;;;;3.17;1.03;;;;;;;1.58;55.35;99758.80;1849032;77;21039;-64
2021/03/24 08:18:14;;;;;;;8.90;1.73;;;;;;;1.66;55.37;99762.69;1850522;77;22237;-61
2021/03/24 08:21:11;;;;;;;2.77;1.50;;;;;;;1.74;55.19;99751.53;1799548;77;21188;-61
2021/03/24 08:23:51;;;;;;;4.00;1.43;;;;;;;1.84;55.31;99766.44;1807124;77;21346;-60
2021/03/24 08:26:56;;;;;;;2.30;1.10;;;;;;;1.93;54.58;99764.12;1787135;78;21684;-61
2021/03/24 08:29:53;;;;;;;6.77;1.83;;;;;;;1.94;54.29;99767.20;1789756;79;21120;-62
2021/03/24 08:32:51;;;;;;;1.73;1.07;;;;;;;1.96;54.48;99768.92;1787372;79;21386;-60
2021/03/24 08:35:55;;;;;;;3.83;1.20;;;;;;;2.04;54.48;99775.48;1772911;79;21301;-63
2021/03/24 08:39:06;;;;;;;4.37;1.40;;;;;;;2.08;54.48;99766.56;1770284;79;21158;-59
2021/03/24 08:42:11;;;;;;;3.70;1.40;;;;;;;2.16;54.48;99776.62;1765800;79;21185;-61
2021/03/24 08:44:53;;;;;;;2.67;0.90;;;;;;;2.21;53.93;99766.35;1766331;79;21168;-61
2021/03/24 08:47:25;;;;;;;2.63;1.33;;;;;;;2.23;53.78;99763.23;1762205;79;21450;-64
2021/03/24 08:49:56;;;;;;;4.23;1.90;;;;;;;2.30;53.63;99767.15;1765008;79;21264;-62
2021/03/24 08:52:57;;;;;;;3.43;1.00;;;;;;;2.32;53.98;99767.98;1765354;79;21729;-62
2021/03/24 08:55:39;;;;;;;3.50;1.43;;;;;;;2.34;53.63;99772.83;1767738;79;21210;-63
2021/03/24 08:58:27;;;;;;;2.13;1.20;;;;;;;2.38;54.12;99770.56;1765358;79;21206;-61
2021/03/24 09:01:05;;;;;;;4.43;1.60;;;;;;;2.48;54.02;99778.80;1762032;79;21383;-63
2021/03/24 09:04:19;;;;;;;2.47;1.43;;;;;;;2.53;53.84;99775.19;1765194;79;21166;-64
2021/03/24 09:07:23;;;;;;;2.20;1.03;;;;;;;2.59;53.86;99780.41;1685649;79;21205;-62
2021/03/24 09:10:13;;;;;;;2.40;0.95;;;;;;;2.66;53.53;99781.17;1764207;79;21199;-63
2021/03/24 09:12:52;;;;;;;3.07;1.90;;;;;;;2.71;53.38;99779.80;1778793;79;21598;-62
2021/03/24 09:15:27;;;;;;;3.63;1.10;;;;;;;2.74;53.36;99769.09;1742394;81;21387;-62
2021/03/24 09:18:20;;;;;;;3.97;1.50;;;;;;;2.75;53.21;99776.16;1763926;80;21609;-64
2021/03/24 09:21:11;;;;;;;2.40;1.10;;;;;;;2.73;53.20;99774.85;1751762;79;21469;-61
2021/03/24 09:24:15;;;;;;;3.87;1.30;;;;;;;2.74;53.14;99774.41;1808443;78;21186;-65
2021/03/24 09:27:11;;;;;;;3.07;1.40;;;;;;;2.76;53.50;99778.80;1813403;78;21641;-62
2021/03/24 09:30:21;;;;;;;2.97;1.37;;;;;;;2.84;53.13;99784.88;1810915;78;21684;-62
2021/03/24 09:33:24;;;;;;;2.70;1.27;;;;;;;2.85;52.79;99785.30;1811588;78;21195;-62
2021/03/24 09:36:35;;;;;;;3.77;1.07;;;;;;;2.84;52.99;99786.65;1807990;78;21202;-60
2021/03/24 09:39:20;;;;;;;2.13;1.00;;;;;;;2.86;53.14;99786.18;1816237;78;21075;-62
2021/03/24 09:42:07;;;;;;;1.17;0.80;;;;;;;2.84;53.11;99778.22;1812080;78;21175;-61
2021/03/24 09:47:55;;;;;;;5.00;2.70;;;;;;;2.92;53.36;99778.97;1859910;74;27131;-61
2021/03/24 09:50:34;;;;;;;4.77;1.60;;;;;;;2.91;53.55;99773.22;1827968;75;21158;-63
2021/03/24 09:53:28;;;;;;;3.20;1.70;;;;;;;2.96;53.46;99774.05;1835037;75;21225;-65
2021/03/24 09:56:04;;;;;;;2.50;1.37;;;;;;;2.99;53.47;99772.64;1834012;75;20988;-64
2021/03/24 09:59:16;;;;;;;5.07;1.13;;;;;;;3.07;53.46;99776.94;1834966;75;21444;-63
2021/03/24 10:02:05;;;;;;;2.13;1.00;;;;;;;3.17;53.40;99777.20;1836195;75;21216;-62
2021/03/24 10:04:44;;;;;;;4.43;1.33;;;;;;;3.26;52.64;99775.27;1833185;75;21474;-63
2021/03/24 10:07:23;;;;;;;2.27;1.67;;;;;;;3.30;52.37;99774.31;1836937;75;21407;-62
2021/03/24 10:10:19;;;;;;;14.77;2.00;;;;;;;3.31;52.34;99764.11;1835002;75;21005;-63
2021/03/24 10:13:16;;;;;;;11.13;3.17;;;;;;;3.33;52.35;99757.39;1833037;75;20968;-64
2021/03/24 10:15:50;;;;;;;7.20;2.77;;;;;;;3.39;51.83;99767.95;1769783;78;21142;-63
2021/03/24 10:19:03;;;;;;;2.50;1.43;;;;;;;3.44;51.85;99748.77;1869855;75;26841;-63
2021/03/24 10:21:40;;;;;;;3.50;1.10;;;;;;;3.42;52.04;99755.89;1815744;77;21112;-61
2021/03/24 10:24:20;;;;;;;3.40;2.10;;;;;;;3.52;51.93;99761.47;1825426;77;22142;-62
2021/03/24 10:26:53;;;;;;;2.63;1.23;;;;;;;3.55;51.29;99765.41;1805565;77;21013;-61
2021/03/24 10:29:25;;;;;;;4.07;1.60;;;;;;;3.56;51.25;99764.95;1834276;77;20954;-62
2021/03/24 10:32:01;;;;;;;4.87;2.03;;;;;;;3.57;50.93;99770.26;1805417;77;20941;-60
2021/03/24 10:34:42;;;;;;;2.90;2.10;;;;;;;3.55;50.97;99764.08;1840385;77;20969;-60
2021/03/24 10:37:19;;;;;;;2.17;1.43;;;;;;;3.56;50.23;99758.30;1816875;77;21396;-62
2021/03/24 10:40:01;;;;;;;2.83;1.50;;;;;;;3.58;50.34;99762.66;1816579;77;21420;-63
2021/03/24 10:42:42;;;;;;;4.83;2.20;;;;;;;3.60;50.09;99771.51;1789173;77;20992;-61
2021/03/24 10:45:46;;;;;;;3.27;1.40;;;;;;;3.63;50.28;99764.80;1769823;78;21154;-61
2021/03/24 10:48:59;;;;;;;2.80;1.85;;;;;;;3.71;50.49;99763.31;1731792;78;21111;-61
2021/03/24 10:51:55;;;;;;;3.30;1.93;;;;;;;3.84;50.70;99761.26;1798460;77;21265;-61
2021/03/24 10:54:31;;;;;;;3.07;1.70;;;;;;;3.94;50.43;99765.03;1795931;79;21125;-63
2021/03/24 10:57:17;;;;;;;;;;;;;;;4.00;50.02;99770.67;1798085;79;21751;-61
2021/03/24 11:00:16;;;;;;;;;;;;;;;4.01;49.29;99760.45;1799107;79;20334;-62
2021/03/24 11:03:00;;;;;;;2.27;1.33;;;;;;;4.01;49.39;99763.11;1794764;78;20401;-63
2021/03/24 11:05:37;;;;;;;1.45;1.07;;;;;;;4.00;49.54;99754.69;1794479;77;21528;-63
2021/03/24 11:08:39;;;;;;;3.23;1.30;;;;;;;4.03;49.07;99761.30;1795203;77;21186;-63
2021/03/24 11:11:18;;;;;;;4.87;1.40;;;;;;;4.07;49.00;99751.02;1792011;77;21205;-62
2021/03/24 11:14:16;;;;;;;1.73;1.13;;;;;;;4.16;48.81;99753.02;1805628;77;21501;-63
2021/03/24 11:17:00;;;;;;;3.03;0.73;;;;;;;4.30;48.57;99747.38;1802252;77;21796;-62
2021/03/24 11:19:33;;;;;;;4.27;0.90;;;;;;;4.48;46.67;99760.27;1767375;78;22025;-62
2021/03/24 11:22:30;;;;;;;3.17;0.80;;;;;;;4.60;47.00;99746.20;1803559;78;21008;-61
2021/03/24 11:25:19;;;;;;;5.40;2.70;;;;;;;4.72;46.79;99750.80;1804978;77;21230;-62
2021/03/24 11:28:04;;;;;;;2.70;1.00;;;;;;;4.79;46.18;99752.40;1804920;77;21194;-62
2021/03/24 11:30:40;;;;;;;2.92;1.10;;;;;;;4.75;44.94;99748.07;1799998;78;21213;-63
2021/03/24 11:33:36;;;;;;;1.40;0.80;;;;;;;4.67;44.78;99758.05;1802794;77;21191;-63
2021/03/24 11:36:33;;;;;;;1.00;0.80;;;;;;;4.61;44.76;99743.97;1802714;78;21190;-60
2021/03/24 11:39:17;;;;;;;0.78;0.50;;;;;;;4.63;44.55;99751.02;1800699;77;21214;-63
2021/03/24 11:41:45;;;;;;;2.50;0.70;;;;;;;4.64;43.86;99742.12;1799213;77;21263;-64
2021/03/24 11:44:21;;;;;;;2.80;1.00;;;;;;;4.66;44.23;99743.42;1802802;78;21209;-63
2021/03/24 11:47:08;;;;;;;0.87;0.60;;;;;;;4.67;44.87;99742.51;1765649;78;21757;-61
2021/03/24 11:50:02;;;;;;;2.50;0.80;;;;;;;4.79;44.16;99744.39;1803426;77;21579;-64
2021/03/24 11:53:00;;;;;;;1.10;0.60;;;;;;;4.86;43.58;99764.66;1770015;77;21179;-61
2021/03/24 11:56:09;;;;;;;1.10;0.80;;;;;;;4.84;43.63;99751.84;1805279;78;21119;-62
2021/03/24 11:58:52;;;;;;;1.20;0.60;;;;;;;4.77;43.70;99746.67;1763212;80;21222;-62
2021/03/24 12:01:45;;;;;;;1.03;0.60;;;;;;;4.77;44.15;99736.88;1766675;78;21757;-63
2021/03/24 12:04:54;;;;;;;1.20;0.55;;;;;;;4.88;43.23;99745.95;1801671;77;21190;-62
2021/03/24 12:07:36;;;;;;;0.80;0.60;;;;;;;4.97;42.87;99737.72;1796467;77;21171;-62
2021/03/24 12:10:27;;;;;;;1.23;0.80;;;;;;;5.03;42.82;99739.34;1797033;77;21210;-62
2021/03/24 12:13:05;;;;;;;0.90;0.50;;;;;;;5.04;42.71;99737.98;1797286;77;21152;-60
2021/03/24 12:15:42;;;;;;;0.83;0.50;;;;;;;5.12;43.12;99750.66;1862518;74;26638;-62
2021/03/24 12:18:17;;;;;;;0.80;0.50;;;;;;;5.14;42.37;99734.16;1832359;75;21044;-63
2021/03/24 12:21:00;;;;;;;1.70;0.50;;;;;;;5.21;42.40;99731.73;1836060;75;22252;-63
2021/03/24 12:23:32;;;;;;;0.90;0.50;;;;;;;5.30;42.41;99738.62;1832075;75;21572;-65
2021/03/24 12:25:59;;;;;;;0.70;0.50;;;;;;;5.38;41.95;99745.95;1834625;75;21182;-62
2021/03/24 12:28:39;;;;;;;1.57;0.50;;;;;;;5.37;42.14;99736.20;1835574;75;21150;-62
2021/03/24 12:31:17;;;;;;;2.87;0.70;;;;;;;5.39;41.00;99729.03;1832685;75;20937;-64
2021/03/24 12:33:56;;;;;;;0.80;0.50;;;;;;;5.39;40.42;99741.50;1834721;75;22741;-62
2021/03/24 12:36:26;;;;;;;0.50;0.30;;;;;;;5.35;40.60;99738.05;1838429;75;20992;-62
2021/03/24 12:39:07;;;;;;;1.17;0.40;;;;;;;5.36;40.69;99730.92;1837177;75;20965;-61
2021/03/24 12:41:39;;;;;;;0.80;0.57;;;;;;;5.38;40.07;99727.27;1830510;75;21089;-59
2021/03/24 12:44:31;;;;;;;6.03;1.00;;;;;;;5.38;40.08;99720.59;1816876;77;21178;-61
2021/03/24 12:47:03;;;;;;;1.30;0.60;;;;;;;5.39;39.84;99729.48;1815261;77;22026;-62
2021/03/24 12:49:34;;;;;;;0.77;0.50;;;;;;;5.38;40.17;99725.06;1814136;77;21138;-63
2021/03/24 12:52:18;;;;;;;0.80;0.50;;;;;;;5.38;40.22;99727.73;1779097;77;20981;-63